Joliette, Canada
Current Conditions -  °F | °C
As of 5:00 AM on Monday 22 Dec 2014 (Local Time) from CYHU Reporting Station
Overcast Overcast  
Wind Chill:   Ceiling: 1300
Heat Index: 16°   Visibility: 9mi
Dew Point: 12°   Wind: 8mph
Humidity: 86%   Direction: 20°NNE
Pressure: 30.41"   Gusts: NA
Location:  46.02°N, 73.44°W
Report Text: CYHU 221000Z AUTO 02007KT 9SM OVC013 M09/M11 A3041 RMK SLP300
Loading
Personal Weather Stations






























Interactive Weather Map New forecast layout! Learn more

10-Day Weather Forecast

Advertisements
Track Severe Weather on mobile